Time;durP1;ratioP1;P1;durP2;ratioP2;P2;SDS_P1;SDS_P2;PMS_P1;PMS_P2;Temp;Humidity;BMP_temperature;BMP_pressure;BME280_temperature;BME280_humidity;BME280_pressure;Samples;Min_cycle;Max_cycle;Signal;HPM_P1;HPM_P2
2023/03/01 00:01:39;;;;;;;21.67;8.45;;;;;;;-144.47;78.39;53150.06;5044122;28;20107;-71
2023/03/01 00:04:04;;;;;;;28.08;12.60;;;;;;;-144.47;78.38;53136.16;5061336;28;20033;-72
2023/03/01 00:06:30;;;;;;;19.98;8.15;;;;;;;-144.47;78.27;53126.22;5051259;28;20032;-71
2023/03/01 00:08:55;;;;;;;21.45;9.90;;;;;;;-144.47;78.14;53126.22;5057524;28;20025;-71
2023/03/01 00:11:27;;;;;;;17.85;8.85;;;;;;;-144.47;78.32;53140.13;5052397;28;20436;-72
2023/03/01 00:13:55;;;;;;;23.27;8.90;;;;;;;-144.47;78.17;53142.09;5051881;28;20017;-72
2023/03/01 00:16:24;;;;;;;19.05;9.38;;;;;;;-144.47;78.31;53148.06;5051327;28;20037;-73
2023/03/01 00:18:50;;;;;;;22.00;9.10;;;;;;;-144.47;77.60;53116.28;5050380;28;20029;-73
2023/03/01 00:21:16;;;;;;;17.20;8.30;;;;;;;-144.47;77.68;53126.22;5055106;28;20029;-71
2023/03/01 00:23:42;;;;;;;16.50;8.25;;;;;;;-144.47;77.88;53144.09;5054493;28;20021;-72
2023/03/01 00:26:10;;;;;;;20.13;9.30;;;;;;;-144.47;77.08;53128.22;5055781;28;20052;-71
2023/03/01 00:28:35;;;;;;;16.50;8.70;;;;;;;-144.47;77.15;53128.22;5044583;28;20052;-70
2023/03/01 00:31:06;;;;;;;15.70;7.68;;;;;;;-144.47;77.62;53132.19;5063863;28;20051;-71
2023/03/01 00:33:31;;;;;;;19.42;7.63;;;;;;;-144.47;77.49;53130.19;5060250;28;20032;-72
2023/03/01 00:35:58;;;;;;;25.33;9.43;;;;;;;-144.47;77.41;53138.13;5058328;28;20288;-73
2023/03/01 00:38:23;;;;;;;43.63;16.77;;;;;;;-144.47;77.59;53136.16;5059659;28;20071;-70
2023/03/01 00:40:49;;;;;;;20.52;8.70;;;;;;;-144.47;77.95;53160.00;5060128;28;20029;-71
2023/03/01 00:43:14;;;;;;;14.63;7.35;;;;;;;-144.47;78.07;53136.16;5063293;28;20032;-72
2023/03/01 00:45:39;;;;;;;18.13;7.68;;;;;;;-144.47;78.30;53146.09;5064418;28;20033;-71
2023/03/01 00:48:05;;;;;;;15.40;7.15;;;;;;;-144.47;77.57;53122.25;5064016;28;20017;-68
2023/03/01 00:50:30;;;;;;;21.17;9.32;;;;;;;-144.47;77.30;53138.13;5064383;28;20033;-70
2023/03/01 00:52:56;;;;;;;22.50;8.43;;;;;;;-144.47;77.52;53136.16;5063688;28;20028;-69
2023/03/01 00:55:22;;;;;;;19.10;8.05;;;;;;;-144.47;77.20;53136.16;5058663;28;20025;-71
2023/03/01 00:57:48;;;;;;;20.52;8.45;;;;;;;-144.47;77.26;53126.22;5051091;28;20029;-72
2023/03/01 01:00:13;;;;;;;13.63;7.03;;;;;;;-144.47;77.79;53152.03;5065573;28;20052;-72
2023/03/01 01:02:39;;;;;;;15.45;8.63;;;;;;;-144.47;78.54;53144.09;5046672;28;20112;-71
2023/03/01 01:05:05;;;;;;;23.25;7.95;;;;;;;-144.47;79.02;53142.09;5060446;28;20439;-70
2023/03/01 01:07:30;;;;;;;17.05;6.90;;;;;;;-144.47;79.02;53130.19;5050729;28;20435;-71
2023/03/01 01:09:55;;;;;;;18.83;7.60;;;;;;;-144.47;78.98;53154.03;5044157;28;20032;-74
2023/03/01 01:12:21;;;;;;;14.35;7.18;;;;;;;-144.47;78.92;53144.09;5031890;28;20043;-72
2023/03/01 01:14:46;;;;;;;18.42;7.38;;;;;;;-144.47;79.15;53154.03;5049721;28;20037;-71
2023/03/01 01:17:12;;;;;;;18.92;6.93;;;;;;;-144.47;78.75;53110.31;5050186;28;20081;-72
2023/03/01 01:19:37;;;;;;;13.50;6.82;;;;;;;-144.47;79.14;53138.13;5050389;28;20060;-71
2023/03/01 01:22:03;;;;;;;15.50;6.63;;;;;;;-144.47;79.14;53124.22;5049963;28;20056;-72
2023/03/01 01:24:28;;;;;;;20.15;8.82;;;;;;;-144.47;78.94;53114.31;5049656;28;20395;-72
2023/03/01 01:26:54;;;;;;;15.02;7.50;;;;;;;-144.47;78.94;53148.06;5049467;28;20439;-70
2023/03/01 01:29:19;;;;;;;15.98;7.18;;;;;;;-144.47;79.04;53163.97;5049915;28;20513;-71
2023/03/01 01:31:45;;;;;;;15.63;7.20;;;;;;;-144.47;79.08;53132.19;5050497;28;20032;-71
2023/03/01 01:34:20;;;;;;;17.80;7.15;;;;;;;-144.47;79.64;53136.16;5031579;28;20029;-73
2023/03/01 01:36:52;;;;;;;15.82;6.22;;;;;;;-144.47;80.47;53160.00;5047872;28;20410;-68
2023/03/01 01:39:18;;;;;;;13.18;6.25;;;;;;;-144.47;80.49;53193.75;5050228;28;20066;-72
2023/03/01 01:41:43;;;;;;;20.35;6.90;;;;;;;-144.47;80.61;53167.94;5050695;28;20029;-72
2023/03/01 01:44:25;;;;;;;15.68;6.65;;;;;;;-144.47;80.64;53140.13;5050311;28;20117;-70
2023/03/01 01:47:01;;;;;;;17.33;8.10;;;;;;;-144.47;80.40;53160.00;5049777;28;20025;-69
2023/03/01 01:49:31;;;;;;;14.32;6.10;;;;;;;-144.47;80.82;53128.22;5049791;28;20025;-72
2023/03/01 01:52:20;;;;;;;14.82;6.63;;;;;;;-144.47;80.63;53124.22;5050482;28;20056;-71
2023/03/01 01:55:04;;;;;;;22.35;8.00;;;;;;;-144.47;81.37;53154.03;5033605;28;20040;-68
2023/03/01 01:57:42;;;;;;;14.65;6.10;;;;;;;-144.47;81.03;53152.03;5053145;28;20179;-73
2023/03/01 02:00:13;;;;;;;17.83;7.03;;;;;;;-144.47;81.29;53154.03;5052655;28;20025;-71
2023/03/01 02:02:42;;;;;;;16.13;7.85;;;;;;;-144.47;82.08;53150.06;5046477;28;20103;-67
2023/03/01 02:05:16;;;;;;;18.30;7.15;;;;;;;-144.47;82.13;53140.13;5069026;28;20017;-69
2023/03/01 02:07:43;;;;;;;12.07;5.47;;;;;;;-144.47;82.11;53148.06;5052698;28;20028;-69
2023/03/01 02:10:09;;;;;;;15.50;6.82;;;;;;;-144.47;81.94;53169.91;5038575;28;20049;-72
2023/03/01 02:12:37;;;;;;;15.63;7.30;;;;;;;-144.47;82.23;53128.22;5053161;28;20013;-72
2023/03/01 02:15:03;;;;;;;15.10;6.40;;;;;;;-144.47;82.10;53156.00;5056893;28;20086;-71
2023/03/01 02:17:29;;;;;;;15.85;7.47;;;;;;;-144.47;82.52;53173.88;5062406;28;20771;-71
2023/03/01 02:20:10;;;;;;;14.88;5.95;;;;;;;-144.47;82.20;53138.13;5060571;28;20050;-73
2023/03/01 02:22:37;;;;;;;17.63;6.65;;;;;;;-144.47;82.37;53156.00;5060954;28;20119;-71
2023/03/01 02:25:08;;;;;;;14.25;5.70;;;;;;;-144.47;82.31;53154.03;5055027;28;20446;-70
2023/03/01 02:28:03;;;;;;;13.20;6.68;;;;;;;-144.47;82.94;53120.25;5051206;28;20032;-71
2023/03/01 02:30:30;;;;;;;15.48;6.50;;;;;;;-144.47;83.21;53185.81;5024474;28;20136;-71
2023/03/01 02:33:02;;;;;;;21.27;7.18;;;;;;;-144.47;83.59;53154.03;5048973;28;20032;-67
2023/03/01 02:35:31;;;;;;;17.80;7.10;;;;;;;-144.47;83.55;53144.09;5049308;28;20518;-71
2023/03/01 02:38:00;;;;;;;12.65;6.30;;;;;;;-144.47;83.38;53161.97;5048382;28;20070;-69
2023/03/01 02:40:29;;;;;;;16.13;6.93;;;;;;;-144.47;83.94;53173.88;5048538;28;20044;-71
2023/03/01 02:42:57;;;;;;;14.15;6.50;;;;;;;-144.47;83.66;53173.88;5050513;28;20066;-71
2023/03/01 02:45:23;;;;;;;15.95;7.55;;;;;;;-144.47;84.11;53173.88;5049679;28;20497;-72
2023/03/01 02:47:49;;;;;;;23.92;7.13;;;;;;;-144.47;84.54;53173.88;5048004;28;20029;-68
2023/03/01 02:50:45;;;;;;;15.32;7.40;;;;;;;-144.47;84.33;53126.22;5048438;28;20091;-72
2023/03/01 02:53:23;;;;;;;19.63;5.63;;;;;;;-144.47;84.46;53154.03;5049060;28;20017;-72
2023/03/01 02:55:49;;;;;;;17.48;6.80;;;;;;;-144.47;84.28;53154.03;5048687;28;20163;-74
2023/03/01 02:58:15;;;;;;;13.07;5.97;;;;;;;-144.47;84.03;53171.91;5048780;28;20383;-71
2023/03/01 03:00:46;;;;;;;16.13;7.03;;;;;;;-144.47;84.36;53183.81;5049423;28;20701;-72
2023/03/01 03:03:21;;;;;;;16.40;6.90;;;;;;;-144.47;84.48;53158.00;5052327;28;20021;-72
2023/03/01 03:05:48;;;;;;;15.63;6.47;;;;;;;-144.47;85.05;53150.06;5050712;28;20560;-69
2023/03/01 03:08:16;;;;;;;15.65;6.88;;;;;;;-144.47;85.43;53171.91;5055832;28;20027;-68
2023/03/01 03:10:42;;;;;;;19.00;6.72;;;;;;;-144.47;85.27;53132.19;5050803;28;20166;-71
2023/03/01 03:13:14;;;;;;;15.05;6.10;;;;;;;-144.47;85.25;53165.94;5049047;28;20017;-71
2023/03/01 03:15:41;;;;;;;10.60;5.78;;;;;;;-144.47;85.35;53140.13;5048597;28;20072;-69
2023/03/01 03:18:10;;;;;;;17.30;7.13;;;;;;;-144.47;85.44;53181.84;5047784;28;20029;-67
2023/03/01 03:20:36;;;;;;;;;;;;;;;-144.47;85.91;53161.97;5049560;28;20032;-71
2023/03/01 03:23:01;;;;;;;22.52;7.38;;;;;;;-144.47;85.97;53169.91;5048805;28;19913;-71
2023/03/01 03:25:28;;;;;;;13.15;6.18;;;;;;;-144.47;85.84;53146.09;5048559;28;20040;-68
2023/03/01 03:27:57;;;;;;;15.27;6.20;;;;;;;-144.47;85.84;53156.00;5048487;28;20033;-71
2023/03/01 03:30:30;;;;;;;;;;;;;;;-144.47;85.85;53163.97;5032324;28;20047;-72
2023/03/01 03:32:58;;;;;;;18.38;6.38;;;;;;;-144.47;85.97;53173.88;5053330;28;19962;-72
2023/03/01 03:35:25;;;;;;;15.80;5.88;;;;;;;-144.47;86.34;53177.88;5058950;28;20097;-72
2023/03/01 03:38:05;;;;;;;17.10;6.53;;;;;;;-144.47;86.32;53167.94;5061303;28;20039;-70
2023/03/01 03:40:35;;;;;;;11.15;6.00;;;;;;;-144.47;86.54;53173.88;5057982;28;20024;-70
2023/03/01 03:43:02;;;;;;;13.18;5.43;;;;;;;-144.47;86.45;53150.06;5053749;28;20076;-71
2023/03/01 03:45:27;;;;;;;14.90;6.88;;;;;;;-144.47;86.62;53175.88;5054189;28;20028;-71
2023/03/01 03:47:53;;;;;;;13.70;6.93;;;;;;;-144.47;86.36;53154.03;5052916;28;20111;-72
2023/03/01 03:50:18;;;;;;;16.13;7.53;;;;;;;-144.47;86.29;53161.97;5053572;28;20378;-71
2023/03/01 03:52:44;;;;;;;10.80;5.30;;;;;;;-144.47;86.30;53171.91;5034403;28;20123;-69
2023/03/01 03:55:11;;;;;;;12.23;6.70;;;;;;;-144.47;86.50;53146.09;5053336;28;20378;-73
2023/03/01 03:57:41;;;;;;;27.35;6.97;;;;;;;-144.47;86.69;53169.91;5051875;28;20028;-72
2023/03/01 04:00:12;;;;;;;11.40;5.82;;;;;;;-144.47;86.59;53181.84;5033766;28;20052;-73
2023/03/01 04:02:44;;;;;;;13.13;6.20;;;;;;;-144.47;86.81;53152.03;5044696;28;20029;-71
2023/03/01 04:05:11;;;;;;;17.20;6.95;;;;;;;-144.47;86.89;53199.72;5050485;28;20136;-71
2023/03/01 04:07:37;;;;;;;15.38;5.72;;;;;;;-144.47;87.24;53160.00;5052157;28;20037;-68
2023/03/01 04:10:09;;;;;;;16.95;7.05;;;;;;;-144.47;87.43;53175.88;5056455;28;20039;-68
2023/03/01 04:12:35;;;;;;;12.43;6.28;;;;;;;-144.47;87.42;53181.84;5033957;28;20033;-69
2023/03/01 04:17:36;;;;;;;12.90;6.50;;;;;;;-144.47;87.62;53173.88;5051698;22;20049;-67
2023/03/01 04:20:05;;;;;;;18.60;6.30;;;;;;;-144.47;87.47;53187.78;5032434;28;20029;-68
2023/03/01 04:22:31;;;;;;;14.10;7.93;;;;;;;-144.47;87.50;53163.97;5032496;28;20029;-67
2023/03/01 04:24:58;;;;;;;19.15;7.43;;;;;;;-144.47;87.74;53175.88;5032356;28;20029;-68
2023/03/01 04:27:23;;;;;;;16.83;7.05;;;;;;;-144.47;87.45;53161.97;5032220;28;20021;-68
2023/03/01 04:29:48;;;;;;;15.45;5.75;;;;;;;-144.47;87.47;53189.78;5031998;28;20032;-68
2023/03/01 04:32:16;;;;;;;19.33;6.78;;;;;;;-144.47;87.84;53169.91;5031549;28;20041;-68
2023/03/01 04:34:41;;;;;;;14.85;5.93;;;;;;;-144.47;88.00;53152.03;5031981;28;20029;-68
2023/03/01 04:37:06;;;;;;;11.93;5.95;;;;;;;-144.47;88.41;53191.78;5031453;28;20108;-68
2023/03/01 04:39:32;;;;;;;17.35;5.93;;;;;;;-144.47;88.13;53167.94;5031603;28;20079;-68
2023/03/01 04:41:57;;;;;;;13.90;6.05;;;;;;;-144.47;88.69;53193.75;5032214;28;20494;-68
2023/03/01 04:44:23;;;;;;;11.77;6.13;;;;;;;-144.47;88.98;53154.03;5031542;28;20030;-68
2023/03/01 04:46:49;;;;;;;13.98;6.78;;;;;;;-144.47;89.37;53219.56;5030948;28;20044;-68
2023/03/01 04:49:15;;;;;;;14.18;6.88;;;;;;;-144.47;89.63;53173.88;5031793;28;20029;-67
2023/03/01 04:51:41;;;;;;;19.77;7.70;;;;;;;-144.47;89.87;53173.88;5023143;28;20052;-68
2023/03/01 04:54:08;;;;;;;14.85;6.90;;;;;;;-144.47;89.83;53197.72;5031127;28;20030;-67
2023/03/01 04:56:34;;;;;;;16.27;7.10;;;;;;;-144.47;89.64;53205.66;5013448;28;20029;-67
2023/03/01 04:59:00;;;;;;;18.92;6.65;;;;;;;-144.47;89.44;53160.00;5031450;28;20619;-67
2023/03/01 05:01:25;;;;;;;14.18;6.72;;;;;;;-144.47;89.80;53177.88;5031227;28;20083;-66
2023/03/01 05:03:51;;;;;;;16.15;7.15;;;;;;;-144.47;89.68;53154.03;5031286;28;20034;-68
2023/03/01 05:06:19;;;;;;;14.20;6.13;;;;;;;-144.47;89.23;53173.88;5031482;28;20079;-67
2023/03/01 05:08:44;;;;;;;15.02;6.38;;;;;;;-144.47;89.16;53181.84;5037906;28;20541;-67
2023/03/01 05:11:10;;;;;;;19.33;7.38;;;;;;;-144.47;89.65;53209.66;5031868;28;20602;-67
2023/03/01 05:13:37;;;;;;;28.63;7.60;;;;;;;-144.47;89.51;53169.91;5030376;28;20501;-67
2023/03/01 05:16:05;;;;;;;12.57;7.35;;;;;;;-144.47;89.43;53187.78;5029780;28;20029;-68
2023/03/01 05:18:32;;;;;;;14.60;7.03;;;;;;;-144.47;89.45;53161.97;5031412;28;20498;-68
2023/03/01 05:21:09;;;;;;;13.80;7.30;;;;;;;-144.47;89.62;53169.91;5031444;28;20041;-69
2023/03/01 05:23:36;;;;;;;14.75;5.85;;;;;;;-144.47;89.01;53207.66;5030724;28;20037;-68
2023/03/01 05:26:03;;;;;;;14.38;7.25;;;;;;;-144.47;89.37;53199.72;5031320;28;20553;-68
2023/03/01 05:28:29;;;;;;;12.77;6.07;;;;;;;-144.47;89.43;53189.78;5031075;28;20057;-69
2023/03/01 05:30:55;;;;;;;13.23;6.47;;;;;;;-144.47;89.73;53195.75;5031165;28;20033;-68
2023/03/01 05:33:21;;;;;;;11.75;6.50;;;;;;;-144.47;89.92;53193.75;5030942;28;20021;-68
2023/03/01 05:35:48;;;;;;;16.50;7.95;;;;;;;-144.47;90.08;53195.75;5030899;28;20037;-66
2023/03/01 05:38:14;;;;;;;12.75;7.22;;;;;;;-144.47;89.93;53191.78;5030508;28;20033;-67
2023/03/01 05:40:45;;;;;;;17.27;6.43;;;;;;;-144.47;90.35;53167.94;5035843;28;20087;-68
2023/03/01 05:43:12;;;;;;;18.13;7.63;;;;;;;-144.47;90.46;53193.75;5029995;28;20052;-67
2023/03/01 05:45:40;;;;;;;16.20;7.45;;;;;;;-144.47;90.36;53177.88;5029679;28;20088;-68
2023/03/01 05:48:06;;;;;;;17.70;7.47;;;;;;;-144.47;90.46;53189.78;5030366;28;20407;-68
2023/03/01 05:50:36;;;;;;;23.40;6.95;;;;;;;-144.47;91.02;53201.69;5030529;28;20320;-70
2023/03/01 05:53:02;;;;;;;18.80;7.50;;;;;;;-144.47;90.85;53179.84;5028072;28;20038;-68
2023/03/01 05:55:29;;;;;;;15.35;6.20;;;;;;;-144.47;90.92;53233.47;5029039;28;20032;-67
2023/03/01 05:57:54;;;;;;;16.25;6.63;;;;;;;-144.47;92.11;53183.81;5025805;28;20040;-68
2023/03/01 06:00:24;;;;;;;25.65;8.20;;;;;;;-144.47;92.07;53197.72;5024606;28;20141;-66
2023/03/01 06:02:51;;;;;;;14.25;7.20;;;;;;;-144.47;91.89;53181.84;5023688;28;20029;-68
2023/03/01 06:05:17;;;;;;;15.95;7.60;;;;;;;-144.47;91.46;53199.72;5027616;28;20038;-68
2023/03/01 06:07:43;;;;;;;16.63;7.28;;;;;;;-144.47;91.47;53183.81;5034599;28;20104;-67
2023/03/01 06:10:10;;;;;;;16.45;6.85;;;;;;;-144.47;91.34;53165.94;5041773;28;20450;-67
2023/03/01 06:12:37;;;;;;;22.92;7.70;;;;;;;-144.47;91.17;53189.78;5029245;28;20052;-69
2023/03/01 06:15:04;;;;;;;16.20;7.70;;;;;;;-144.47;91.39;53177.88;5031066;28;20569;-71
2023/03/01 06:17:31;;;;;;;14.13;6.82;;;;;;;-144.47;90.83;53177.88;5030905;28;20495;-67
2023/03/01 06:19:57;;;;;;;20.45;9.13;;;;;;;-144.47;90.33;53179.84;5030888;28;20075;-68
2023/03/01 06:22:22;;;;;;;14.32;7.00;;;;;;;-144.47;90.50;53165.94;5030924;28;20029;-67
2023/03/01 06:24:47;;;;;;;25.83;7.88;;;;;;;-144.47;90.47;53187.78;5030594;28;20033;-68
2023/03/01 06:27:13;;;;;;;14.43;6.72;;;;;;;-144.47;90.42;53165.94;5028974;28;20398;-69
2023/03/01 06:29:38;;;;;;;17.05;7.97;;;;;;;-144.47;90.26;53175.88;5030294;28;20041;-69
2023/03/01 06:32:04;;;;;;;23.58;7.90;;;;;;;-144.47;90.50;53167.94;5030182;28;20538;-67
2023/03/01 06:34:30;;;;;;;25.42;9.90;;;;;;;-144.47;90.18;53197.72;5029990;28;20032;-68
2023/03/01 06:36:55;;;;;;;25.88;12.48;;;;;;;-144.47;89.96;53173.88;5012069;28;20037;-67
2023/03/01 06:39:20;;;;;;;29.85;12.45;;;;;;;-144.47;89.89;53185.81;5029271;28;20094;-67
2023/03/01 06:41:46;;;;;;;23.52;9.45;;;;;;;-144.47;89.59;53175.88;5029850;28;20067;-67
2023/03/01 06:44:11;;;;;;;32.63;12.77;;;;;;;-144.47;89.74;53144.09;5029694;28;20491;-67
2023/03/01 06:46:36;;;;;;;22.73;9.98;;;;;;;-144.47;91.44;53179.84;5030741;28;20029;-68
2023/03/01 06:49:07;;;;;;;21.95;9.25;;;;;;;-144.47;96.78;53167.94;5030179;28;20057;-67
2023/03/01 06:51:32;;;;;;;24.88;8.55;;;;;;;-144.47;91.61;53169.91;5030644;28;20032;-69
2023/03/01 06:53:58;;;;;;;19.05;8.60;;;;;;;-144.47;88.34;53163.97;5030294;28;20029;-69
2023/03/01 06:56:23;;;;;;;16.83;8.00;;;;;;;-144.47;87.67;53165.94;5030516;28;20112;-71
2023/03/01 06:58:48;;;;;;;15.65;8.10;;;;;;;-144.47;85.17;53140.13;5030684;28;20033;-67
2023/03/01 07:01:14;;;;;;;22.27;9.27;;;;;;;-144.47;84.95;53150.06;5027621;28;20026;-66
2023/03/01 07:03:39;;;;;;;20.08;8.65;;;;;;;-144.47;85.25;53171.91;5028411;28;20687;-66
2023/03/01 07:06:05;;;;;;;19.17;9.70;;;;;;;-144.47;85.85;53140.13;5030176;28;20502;-67
2023/03/01 07:08:30;;;;;;;17.92;7.55;;;;;;;-144.47;85.80;53154.03;5036201;28;20391;-66
2023/03/01 07:10:57;;;;;;;21.10;8.10;;;;;;;-144.47;85.71;53124.22;5012398;28;20467;-66
2023/03/01 07:13:22;;;;;;;15.75;7.57;;;;;;;-144.47;86.09;53173.88;5029953;28;20025;-65
2023/03/01 07:15:48;;;;;;;23.17;9.43;;;;;;;-144.47;85.96;53114.31;5011728;28;20491;-67
2023/03/01 07:18:13;;;;;;;37.95;9.73;;;;;;;-144.47;85.66;53142.09;5028887;28;20118;-67
2023/03/01 07:20:38;;;;;;;20.30;8.13;;;;;;;-144.47;85.58;53173.88;5029257;28;20395;-66
2023/03/01 07:23:05;;;;;;;16.10;8.43;;;;;;;-144.47;85.16;53142.09;5028749;28;20041;-66
2023/03/01 07:25:31;;;;;;;17.77;8.60;;;;;;;-144.47;84.70;53136.16;5028555;28;20029;-67
2023/03/01 07:27:57;;;;;;;17.95;9.10;;;;;;;-144.47;83.84;53146.09;5028929;28;20040;-68
2023/03/01 07:30:25;;;;;;;23.88;8.70;;;;;;;-144.47;83.39;53140.13;5011867;28;20030;-67
2023/03/01 07:32:51;;;;;;;23.98;8.65;;;;;;;-144.47;82.91;53122.25;5028772;28;20073;-69
2023/03/01 07:35:16;;;;;;;27.17;9.45;;;;;;;-144.47;81.99;53120.25;5029382;28;20033;-68
2023/03/01 07:37:42;;;;;;;23.70;8.75;;;;;;;-144.47;81.67;53148.06;5028174;28;20077;-67
2023/03/01 07:40:08;;;;;;;17.00;8.07;;;;;;;-144.47;81.27;53140.13;5010453;28;20395;-66
2023/03/01 07:42:33;;;;;;;17.65;8.32;;;;;;;-144.47;81.35;53102.38;5028420;28;20071;-67
2023/03/01 07:44:58;;;;;;;19.15;9.00;;;;;;;-144.47;81.04;53102.38;5029698;28;20021;-66
2023/03/01 07:47:24;;;;;;;21.65;8.65;;;;;;;-144.47;80.72;53130.19;5029636;28;20038;-67
2023/03/01 07:49:49;;;;;;;25.88;9.18;;;;;;;-144.47;80.21;53146.09;5029439;28;20113;-69
2023/03/01 07:52:15;;;;;;;19.70;10.10;;;;;;;-144.47;80.10;53112.31;5029911;28;20395;-67
2023/03/01 07:54:42;;;;;;;21.35;9.18;;;;;;;-144.47;80.01;53100.41;5030510;28;20479;-67
2023/03/01 07:57:08;;;;;;;20.25;8.43;;;;;;;-144.47;79.73;53102.38;5030093;28;20109;-67
2023/03/01 07:59:33;;;;;;;22.75;9.85;;;;;;;-144.47;79.58;53126.22;5030460;28;20438;-66
2023/03/01 08:01:59;;;;;;;21.33;9.30;;;;;;;-144.47;78.87;53102.38;5022843;28;20059;-67
2023/03/01 08:04:26;;;;;;;47.60;9.98;;;;;;;-144.47;78.52;53098.41;5029309;28;20041;-68
2023/03/01 08:06:52;;;;;;;20.75;9.05;;;;;;;-144.47;77.98;53102.38;5011505;28;20025;-67
2023/03/01 08:09:17;;;;;;;26.02;9.10;;;;;;;-144.47;78.37;53112.31;5018134;28;20488;-68
2023/03/01 08:11:42;;;;;;;17.88;8.18;;;;;;;-144.47;78.02;53106.34;5030566;28;20442;-67
2023/03/01 08:14:10;;;;;;;20.27;10.05;;;;;;;-144.47;77.38;53110.31;5031005;28;20503;-66
2023/03/01 08:16:36;;;;;;;23.50;9.55;;;;;;;-144.47;77.32;53120.25;5029666;28;20053;-69
2023/03/01 08:19:06;;;;;;;21.45;8.95;;;;;;;-144.47;76.74;53102.38;5029993;28;20369;-68
2023/03/01 08:21:34;;;;;;;14.60;8.10;;;;;;;-144.47;76.25;53082.53;5029924;28;20049;-68
2023/03/01 08:24:00;;;;;;;20.10;8.90;;;;;;;-144.47;75.46;53074.56;5034005;28;20143;-67
2023/03/01 08:26:25;;;;;;;17.42;9.40;;;;;;;-144.47;74.46;53062.66;5019902;28;20033;-68
2023/03/01 08:28:51;;;;;;;21.75;10.70;;;;;;;-144.47;73.40;53088.47;5034583;28;20035;-68
2023/03/01 08:31:30;;;;;;;17.60;9.65;;;;;;;-144.47;73.50;53094.44;5033398;28;20025;-70
2023/03/01 08:33:59;;;;;;;22.75;9.55;;;;;;;-144.47;72.80;53066.63;5032975;28;20476;-68
2023/03/01 08:36:31;;;;;;;24.75;10.07;;;;;;;-144.47;72.51;53056.69;5031165;28;20163;-67
2023/03/01 08:38:57;;;;;;;23.58;9.07;;;;;;;-144.47;71.83;53060.66;5034693;28;20032;-68
2023/03/01 08:41:23;;;;;;;15.68;7.40;;;;;;;-144.47;72.30;53098.41;5032518;28;20049;-68
2023/03/01 08:43:48;;;;;;;23.73;9.57;;;;;;;-144.47;72.08;53056.69;5032589;28;20071;-68
2023/03/01 08:46:14;;;;;;;26.55;9.45;;;;;;;-144.47;72.15;53058.69;5032060;28;20402;-67
2023/03/01 08:48:42;;;;;;;22.20;9.68;;;;;;;-144.47;72.13;53068.63;5031744;28;20056;-69
2023/03/01 08:51:13;;;;;;;19.42;9.10;;;;;;;-144.47;71.63;53056.69;5032199;28;20475;-67
2023/03/01 08:53:39;;;;;;;25.45;10.43;;;;;;;-144.47;71.08;53038.81;5031551;28;20029;-67
2023/03/01 08:56:04;;;;;;;26.17;10.15;;;;;;;-144.47;71.18;53050.75;5031907;28;20040;-68
2023/03/01 08:58:30;;;;;;;23.20;11.07;;;;;;;-144.47;70.33;53066.63;5031396;28;20467;-69
2023/03/01 09:00:58;;;;;;;29.38;10.15;;;;;;;-144.47;70.11;53040.81;5032022;28;20026;-66
2023/03/01 09:03:25;;;;;;;22.97;10.03;;;;;;;-144.47;69.25;53044.78;5010270;28;20514;-68
2023/03/01 09:05:51;;;;;;;24.63;11.45;;;;;;;-144.47;69.43;53044.78;5031671;28;20064;-68
2023/03/01 09:08:17;;;;;;;28.08;10.00;;;;;;;-144.47;68.90;53046.75;5037185;28;20028;-67
2023/03/01 09:10:43;;;;;;;26.38;10.07;;;;;;;-144.47;68.53;53007.03;5031600;28;20426;-68
2023/03/01 09:13:08;;;;;;;29.15;10.10;;;;;;;-144.47;68.62;53066.63;5031645;28;20028;-68
2023/03/01 09:15:36;;;;;;;22.52;8.90;;;;;;;-144.47;68.55;53022.94;5031615;28;20033;-67
2023/03/01 09:18:02;;;;;;;21.52;10.27;;;;;;;-144.47;69.07;53076.56;5031140;28;20032;-66
2023/03/01 09:20:27;;;;;;;23.38;11.10;;;;;;;-144.47;67.74;52987.19;5030972;28;20025;-67
2023/03/01 09:22:53;;;;;;;24.38;10.40;;;;;;;-144.47;67.31;53044.78;5030810;28;20025;-66
2023/03/01 09:25:18;;;;;;;23.90;10.73;;;;;;;-144.47;67.48;53030.88;5030857;28;20021;-67
2023/03/01 09:27:43;;;;;;;25.77;9.50;;;;;;;-144.47;67.01;53034.84;5030711;28;20025;-67
2023/03/01 09:30:09;;;;;;;27.90;9.77;;;;;;;-144.47;66.65;53030.88;5031110;28;20100;-67
2023/03/01 09:32:35;;;;;;;20.20;8.93;;;;;;;-144.47;66.06;53036.84;5029926;28;20388;-66
2023/03/01 09:35:03;;;;;;;25.25;9.27;;;;;;;-144.47;65.19;53042.78;5030838;28;20508;-67
2023/03/01 09:37:28;;;;;;;20.95;8.82;;;;;;;-144.47;65.79;53015.00;5028272;28;20086;-66
2023/03/01 09:39:54;;;;;;;22.67;9.43;;;;;;;-144.47;65.95;53034.84;5030852;28;20041;-67
2023/03/01 09:42:19;;;;;;;24.05;9.77;;;;;;;-144.47;65.17;53009.03;5030766;28;20068;-67
2023/03/01 09:44:51;;;;;;;21.17;9.13;;;;;;;-144.47;65.37;53003.06;5030020;28;20021;-67
2023/03/01 09:47:29;;;;;;;23.55;10.52;;;;;;;-144.47;64.74;53032.88;5031386;28;20482;-67
2023/03/01 09:50:14;;;;;;;20.55;9.48;;;;;;;-144.47;64.25;53016.97;5031117;28;20037;-66
2023/03/01 09:52:41;;;;;;;23.02;9.90;;;;;;;-144.47;64.22;53032.88;5031722;28;20083;-67
2023/03/01 09:55:33;;;;;;;21.13;10.27;;;;;;;-144.47;64.27;53034.84;5030944;28;20434;-66
2023/03/01 09:58:31;;;;;;;19.85;9.30;;;;;;;-144.47;63.52;53060.66;5026041;28;20034;-68
2023/03/01 10:01:02;;;;;;;27.60;10.20;;;;;;;-144.47;63.55;52999.09;5030883;28;20101;-68
2023/03/01 10:03:44;;;;;;;20.40;9.85;;;;;;;-144.47;63.53;53028.88;5029884;28;20029;-69
2023/03/01 10:06:15;;;;;;;23.10;9.20;;;;;;;-144.47;63.42;53022.94;5037776;28;20036;-67
2023/03/01 10:08:49;;;;;;;21.08;8.85;;;;;;;-144.47;62.78;53018.97;5033744;28;20037;-68
2023/03/01 10:11:30;;;;;;;29.95;10.52;;;;;;;-144.47;62.61;53015.00;5030872;28;20033;-68
2023/03/01 10:13:55;;;;;;;25.90;9.63;;;;;;;-144.47;62.78;52973.28;5030526;28;20337;-67
2023/03/01 10:16:32;;;;;;;20.15;9.35;;;;;;;-144.47;62.66;52989.16;5052607;22;20059;-70
2023/03/01 10:19:04;;;;;;;31.90;10.23;;;;;;;-144.47;62.59;53011.00;5030353;28;20085;-70
2023/03/01 10:21:33;;;;;;;23.17;10.68;;;;;;;-144.47;63.02;52975.25;5028311;28;20025;-70
2023/03/01 10:24:14;;;;;;;18.83;9.52;;;;;;;-144.47;62.81;52973.28;5028259;28;20021;-68
2023/03/01 10:26:59;;;;;;;19.83;9.05;;;;;;;-144.47;62.12;53028.88;5009615;28;20032;-70
2023/03/01 10:29:34;;;;;;;21.80;9.75;;;;;;;-144.47;62.48;53011.00;5041380;28;20201;-71
2023/03/01 10:31:59;;;;;;;26.15;10.32;;;;;;;-144.47;63.30;53007.03;5028081;28;20047;-70
2023/03/01 10:34:29;;;;;;;22.65;9.63;;;;;;;-144.47;62.91;53022.94;5009684;28;20021;-70
2023/03/01 10:37:12;;;;;;;19.98;9.15;;;;;;;-144.47;63.57;52999.09;5040191;28;20024;-71
2023/03/01 10:39:55;;;;;;;25.35;8.98;;;;;;;-144.47;63.19;52999.09;5034308;28;20090;-70
2023/03/01 10:42:47;;;;;;;24.23;10.32;;;;;;;-144.47;62.71;53007.03;5048467;28;20024;-74
2023/03/01 10:45:27;;;;;;;24.50;10.52;;;;;;;-144.47;62.58;52987.19;5027888;28;20026;-71
2023/03/01 10:48:15;;;;;;;22.50;9.50;;;;;;;-144.47;60.72;52981.22;5040586;28;20604;-70
2023/03/01 10:50:43;;;;;;;16.63;8.05;;;;;;;-144.47;59.42;52997.09;5030291;28;20093;-71
2023/03/01 10:53:24;;;;;;;26.83;9.50;;;;;;;-144.47;58.85;53003.06;5033465;28;20519;-72
2023/03/01 10:55:58;;;;;;;26.02;9.40;;;;;;;-144.47;59.16;52993.13;5034695;28;20112;-70
2023/03/01 10:58:23;;;;;;;26.60;9.52;;;;;;;-144.47;58.69;52971.28;5027858;28;20119;-71
2023/03/01 11:00:55;;;;;;;19.95;9.38;;;;;;;-144.47;57.80;52979.22;5040905;28;20021;-70
2023/03/01 11:03:27;;;;;;;22.27;9.65;;;;;;;-144.47;59.46;52993.13;5030682;28;20025;-70
2023/03/01 11:05:52;;;;;;;24.27;8.77;;;;;;;-144.47;59.90;52999.09;5044898;28;20064;-71
2023/03/01 11:08:37;;;;;;;22.35;10.00;;;;;;;-144.47;59.39;52973.28;5032634;28;20055;-69
2023/03/01 11:11:11;;;;;;;19.58;9.10;;;;;;;-144.47;58.60;52967.31;5028870;28;20116;-69
2023/03/01 11:13:58;;;;;;;26.27;9.43;;;;;;;-144.47;58.64;52979.22;5037820;28;20075;-71
2023/03/01 11:16:41;;;;;;;17.20;7.65;;;;;;;-144.47;57.96;52971.28;5008828;28;20052;-71
2023/03/01 11:19:10;;;;;;;21.83;10.27;;;;;;;-144.47;59.17;52989.16;5046271;28;20025;-71